Gertrude, Kentucky
Current Conditions -  °F | °C
As of 4:35 PM on Saturday 25 Oct 2014 (Local Time) from KFGX Reporting Station
Scattered Clouds Scattered Clouds  
Wind Chill: 69°   Ceiling: Unl
Heat Index: 69°   Visibility: 10mi
Dew Point: 58°   Wind: 10mph
Humidity: 67%   Direction: 240°WSW
Pressure: 29.95"   Gusts: NA
Location:  38.6516°N, 84.0942°W
Report Text: KFGX 252035Z AUTO 24009KT 10SM SCT027 20/14 A2995 RMK AO2 T02040142
Loading
Personal Weather Stations






























Interactive Weather Map
Tropical Storm Tracking
New forecast layout! Learn more

10-Day Weather Forecast

Advertisements
Track Severe Weather on mobile